ADDS METAR Data INFO
IDs: Format: Raw Decoded Include TAF

Data at: 0038 UTC 23 Oct 2017

METAR for:KSPG (St Petersburg/Whitte, FL, US)
Text:KSPG 222353Z 14010KT 10SM FEW044 SCT075 28/23 A3003 RMK AO2 RAB21E32 SLP168 P0000 60000 T02830233 10306 20278 53005
Temperature: 28.3°C ( 83°F)
Dewpoint: 23.3°C ( 74°F) [RH = 74%]
Pressure (altimeter):30.03 inches Hg (1017.0 mb) [Sea level pressure: 1016.8 mb]
Winds:from the SE (140 degrees) at 12 MPH (10 knots; 5.1 m/s)
Visibility:10 or more sm (16+ km)
Ceiling:at least 12,000 feet AGL
Clouds: few clouds at 4400 feet AGL, scattered clouds at 7500 feet AGL